createdAt,value
2022-09-06T00:00:35.688Z,22.75
2022-09-06T00:05:41.371Z,21.00
2022-09-06T00:10:44.030Z,22.25
2022-09-06T00:15:46.908Z,21.75
2022-09-06T00:20:50.960Z,23.25
2022-09-06T00:25:53.613Z,21.50
2022-09-06T00:30:56.336Z,23.00
2022-09-06T00:36:03.490Z,22.00
2022-09-06T00:41:06.721Z,22.25
2022-09-06T00:46:10.630Z,20.25
2022-09-06T00:51:14.747Z,20.50
2022-09-06T00:56:17.385Z,21.50
2022-09-06T01:01:20.384Z,23.25
2022-09-06T01:06:26.314Z,21.00
2022-09-06T01:11:39.221Z,22.00
2022-09-06T01:16:46.185Z,22.75
2022-09-06T01:21:51.291Z,23.75
2022-09-06T01:27:35.971Z,21.75
2022-09-06T01:32:43.395Z,22.00
2022-09-06T01:37:46.152Z,22.50
2022-09-06T01:42:49.051Z,21.40
2022-09-06T01:47:57.827Z,21.50
2022-09-06T01:53:03.099Z,22.00
2022-09-06T01:58:28.451Z,25.75
2022-09-06T02:03:35.386Z,21.00
2022-09-06T02:08:39.577Z,22.25
2022-09-06T02:13:46.038Z,24.50
2022-09-06T02:18:52.314Z,23.00
2022-09-06T02:23:55.086Z,20.40
2022-09-06T02:28:57.841Z,24.80
2022-09-06T02:34:01.856Z,22.60
2022-09-06T02:39:05.158Z,21.00
2022-09-06T02:44:07.840Z,22.20
2022-09-06T02:49:11.977Z,20.20
2022-09-06T02:54:14.925Z,22.00
2022-09-06T02:59:17.773Z,20.40
2022-09-06T03:04:21.756Z,21.25
2022-09-06T03:09:25.008Z,19.80
2022-09-06T03:14:27.673Z,21.40
2022-09-06T03:19:31.672Z,20.20
2022-09-06T03:24:34.346Z,22.20
2022-09-06T03:29:37.140Z,20.40
2022-09-06T03:34:41.112Z,23.00
2022-09-06T03:39:43.966Z,20.25
2022-09-06T03:44:46.881Z,19.40
2022-09-06T03:49:50.872Z,20.75
2022-09-06T03:54:53.573Z,22.40
2022-09-06T03:59:56.257Z,20.00
2022-09-06T04:05:00.333Z,19.80
2022-09-06T04:10:03.976Z,22.80
2022-09-06T04:15:07.750Z,20.00
2022-09-06T04:20:11.879Z,22.80
2022-09-06T04:25:14.504Z,20.40
2022-09-06T04:30:17.510Z,20.80
2022-09-06T04:35:21.544Z,21.50
2022-09-06T04:40:24.227Z,21.60
2022-09-06T04:45:27.140Z,20.75
2022-09-06T04:50:31.192Z,22.75
2022-09-06T04:55:40.493Z,18.20
2022-09-06T05:00:44.656Z,21.00
2022-09-06T05:05:48.696Z,20.75
2022-09-06T05:10:52.394Z,22.75
2022-09-06T05:15:55.048Z,21.00
2022-09-06T05:20:59.000Z,19.60
2022-09-06T05:26:01.674Z,21.75
2022-09-06T05:31:08.553Z,20.20
2022-09-06T05:36:12.769Z,18.80
2022-09-06T05:41:15.426Z,20.20
2022-09-06T05:46:18.227Z,21.50
2022-09-06T05:51:22.269Z,21.75
2022-09-06T05:56:24.960Z,20.40
2022-09-06T06:01:28.249Z,21.00
2022-09-06T06:06:33.061Z,21.60
2022-09-06T06:11:35.818Z,19.50
2022-09-06T06:16:38.667Z,21.75
2022-09-06T06:21:43.714Z,17.40
2022-09-06T06:26:46.454Z,20.00
2022-09-06T06:31:49.188Z,20.00
2022-09-06T06:36:53.216Z,23.00
2022-09-06T06:41:56.027Z,19.60
2022-09-06T06:47:11.915Z,21.00
2022-09-06T06:52:15.978Z,27.00
2022-09-06T06:57:18.643Z,25.75
2022-09-06T07:02:21.449Z,25.75
2022-09-06T07:07:34.420Z,27.25
2022-09-06T07:12:39.333Z,26.00
2022-09-06T07:17:42.010Z,26.00
2022-09-06T07:22:46.012Z,28.00
2022-09-06T07:27:49.610Z,26.50
2022-09-06T07:32:52.972Z,27.50
2022-09-06T07:37:58.249Z,25.00
2022-09-06T07:43:00.977Z,26.25
2022-09-06T07:48:03.998Z,28.50
2022-09-06T07:53:10.906Z,27.00
2022-09-06T07:58:18.634Z,26.00
2022-09-06T08:03:21.417Z,26.25
2022-09-06T08:13:52.586Z,24.00
2022-09-06T08:18:56.265Z,24.75
2022-09-06T08:24:00.998Z,26.25
2022-09-06T08:29:06.683Z,25.00
2022-09-06T08:34:09.593Z,23.75
2022-09-06T08:39:13.569Z,25.75
2022-09-06T08:49:41.540Z,26.00
2022-09-06T08:54:48.036Z,22.50
2022-09-06T08:59:50.703Z,25.75
2022-09-06T09:04:54.303Z,25.50
2022-09-06T09:09:58.335Z,27.75
2022-09-06T09:15:03.227Z,30.00
2022-09-06T09:20:08.306Z,25.25
2022-09-06T09:25:15.432Z,26.25
2022-09-06T09:35:42.184Z,25.75
2022-09-06T09:40:52.291Z,26.75
2022-09-06T09:46:16.116Z,28.25
2022-09-06T09:51:26.088Z,26.75
2022-09-06T09:56:35.598Z,29.50
2022-09-06T10:01:38.404Z,26.00
2022-09-06T10:12:05.934Z,26.75
2022-09-06T10:17:08.632Z,25.25
2022-09-06T10:22:27.421Z,23.25
2022-09-06T10:27:33.343Z,24.00
2022-09-06T10:32:42.424Z,24.75
2022-09-06T10:38:07.511Z,23.75
2022-09-06T10:43:14.489Z,24.50
2022-09-06T10:48:20.653Z,23.25
2022-09-06T10:53:35.808Z,21.50
2022-09-06T11:04:12.807Z,24.50
2022-09-06T11:09:17.941Z,21.00
2022-09-06T11:14:21.985Z,20.50
2022-09-06T11:19:25.985Z,20.25
2022-09-06T11:24:34.068Z,19.60
2022-09-06T11:29:40.885Z,19.40
2022-09-06T11:34:45.689Z,20.75
2022-09-06T11:45:21.347Z,23.00
2022-09-06T11:50:42.751Z,21.20
2022-09-06T11:55:46.155Z,19.00
2022-09-06T12:01:24.965Z,19.60
2022-09-06T12:06:28.593Z,19.60
2022-09-06T12:11:43.563Z,20.40
2022-09-06T12:17:25.961Z,18.40
2022-09-06T12:22:57.613Z,18.00
2022-09-06T12:28:00.710Z,16.60
2022-09-06T12:33:03.652Z,19.00
2022-09-06T12:38:09.341Z,17.20
2022-09-06T12:43:12.939Z,18.00
2022-09-06T12:48:27.036Z,19.60
2022-09-06T12:53:31.734Z,16.40
2022-09-06T12:58:34.610Z,18.60
2022-09-06T13:03:39.378Z,20.20
2022-09-06T13:08:46.328Z,18.40
2022-09-06T13:13:49.614Z,18.00
2022-09-06T13:18:52.242Z,17.60
2022-09-06T13:23:58.942Z,17.00
2022-09-06T13:29:11.515Z,17.20
2022-09-06T13:34:20.991Z,19.60
2022-09-06T13:39:43.973Z,17.60
2022-09-06T13:44:46.709Z,15.80
2022-09-06T13:49:49.461Z,17.20
2022-09-06T13:54:53.413Z,18.40
2022-09-06T13:59:56.195Z,17.00
2022-09-06T14:04:58.930Z,15.40
2022-09-06T14:10:02.944Z,15.80
2022-09-06T14:15:06.894Z,16.00
2022-09-06T14:20:10.775Z,15.40
2022-09-06T14:25:15.022Z,15.60
2022-09-06T14:30:17.879Z,15.00
2022-09-06T14:35:20.511Z,14.40
2022-09-06T14:40:24.551Z,13.60
2022-09-06T14:45:27.233Z,14.00
2022-09-06T14:50:31.264Z,14.20
2022-09-06T14:55:36.038Z,16.20
2022-09-06T15:00:38.843Z,13.60
2022-09-06T15:05:41.557Z,15.00
2022-09-06T15:10:54.966Z,14.40
2022-09-06T15:15:57.792Z,13.20
2022-09-06T15:21:04.367Z,14.40
2022-09-06T15:26:09.332Z,13.60
2022-09-06T15:31:12.498Z,14.00
2022-09-06T15:36:16.232Z,14.40
2022-09-06T15:41:21.339Z,13.60
2022-09-06T15:46:41.667Z,12.60
2022-09-06T15:51:44.552Z,14.60
2022-09-06T15:56:49.075Z,13.80
2022-09-06T16:01:51.929Z,13.00
2022-09-06T16:06:54.672Z,11.60
2022-09-06T16:11:58.713Z,13.00
2022-09-06T16:17:01.585Z,14.80
2022-09-06T16:22:04.754Z,11.80
2022-09-06T16:27:08.864Z,11.20
2022-09-06T16:32:11.689Z,14.40
2022-09-06T16:37:14.363Z,10.40
2022-09-06T16:42:18.482Z,10.40
2022-09-06T16:47:21.313Z,10.60
2022-09-06T16:52:24.066Z,11.40
2022-09-06T16:57:28.260Z,11.20
2022-09-06T17:02:31.378Z,11.20
2022-09-06T17:07:34.230Z,11.60
2022-09-06T17:12:38.423Z,11.00
2022-09-06T17:17:41.240Z,11.80
2022-09-06T17:22:43.993Z,12.80
2022-09-06T17:27:48.380Z,14.00
2022-09-06T17:32:51.297Z,13.20
2022-09-06T17:37:54.187Z,11.80
2022-09-06T17:42:58.251Z,10.20
2022-09-06T17:48:00.948Z,11.80
2022-09-06T17:53:03.866Z,12.20
2022-09-06T17:58:08.385Z,9.80
2022-09-06T18:03:11.306Z,10.60
2022-09-06T18:08:14.077Z,11.80
2022-09-06T18:13:18.202Z,11.40
2022-09-06T18:18:20.909Z,8.80
2022-09-06T18:23:23.630Z,10.40
2022-09-06T18:28:28.764Z,9.80
2022-09-06T18:33:31.571Z,11.60
2022-09-06T18:38:35.093Z,12.20
2022-09-06T18:43:40.505Z,11.20
2022-09-06T18:48:43.201Z,12.00
2022-09-06T18:53:46.550Z,9.40
2022-09-06T18:58:51.851Z,12.40
2022-09-06T19:03:54.709Z,10.60
2022-09-06T19:08:59.038Z,9.00
2022-09-06T19:14:03.117Z,8.20
2022-09-06T19:19:06.987Z,8.00
2022-09-06T19:24:10.206Z,9.00
2022-09-06T19:29:16.164Z,8.80
2022-09-06T19:34:19.182Z,8.80
2022-09-06T19:39:22.428Z,9.40
2022-09-06T19:44:26.527Z,8.60
2022-09-06T19:49:30.627Z,8.00
2022-09-06T19:54:33.325Z,9.20
2022-09-06T19:59:39.310Z,8.40
2022-09-06T20:04:42.011Z,9.00
2022-09-06T20:09:46.037Z,7.00
2022-09-06T20:14:51.541Z,9.80
2022-09-06T20:19:54.383Z,9.80
2022-09-06T20:24:57.095Z,9.00
2022-09-06T20:30:01.480Z,8.80
2022-09-06T20:35:04.617Z,11.40
2022-09-06T20:40:09.130Z,8.00
2022-09-06T20:45:13.438Z,9.00
2022-09-06T20:50:16.577Z,9.00
2022-09-06T20:55:19.343Z,9.00
2022-09-06T21:00:23.605Z,12.20
2022-09-06T21:05:26.325Z,9.00
2022-09-06T21:10:29.054Z,11.60
2022-09-06T21:15:35.109Z,11.80
2022-09-06T21:20:38.869Z,10.80
2022-09-06T21:25:41.606Z,11.00
2022-09-06T21:30:45.687Z,13.00
2022-09-06T21:35:48.376Z,11.20
2022-09-06T21:40:51.067Z,13.00
2022-09-06T21:45:55.156Z,13.60
2022-09-06T21:50:57.937Z,12.20
2022-09-06T21:56:01.062Z,12.40
2022-09-06T22:01:05.465Z,12.20
2022-09-06T22:06:11.618Z,13.00
2022-09-06T22:11:15.603Z,10.20
2022-09-06T22:16:20.932Z,9.80
2022-09-06T22:21:24.428Z,11.00
2022-09-06T22:26:27.725Z,11.80
2022-09-06T22:31:32.871Z,9.00
2022-09-06T22:36:35.684Z,11.60
2022-09-06T22:41:38.515Z,11.80
2022-09-06T22:46:42.732Z,10.60
2022-09-06T22:51:45.528Z,11.80
2022-09-06T22:56:48.272Z,10.40
2022-09-06T23:01:52.391Z,8.80
2022-09-06T23:06:55.072Z,11.60
2022-09-06T23:11:57.804Z,9.80
2022-09-06T23:17:02.119Z,8.20
2022-09-06T23:22:05.027Z,9.80
2022-09-06T23:27:07.747Z,9.20
2022-09-06T23:32:11.895Z,11.00
2022-09-06T23:37:14.606Z,9.00
2022-09-06T23:42:17.365Z,9.80
2022-09-06T23:47:21.449Z,8.40
2022-09-06T23:52:24.381Z,8.40
2022-09-06T23:57:27.165Z,8.80
